Auberry, California
Current Conditions -  °F | °C
As of 11:53 AM on Friday 19 Dec 2014 (Local Time) from KFAT Reporting Station
Overcast Overcast  
Wind Chill: 55°   Ceiling: 15000
Heat Index: 55°   Visibility: 10mi
Dew Point: 46°   Wind: 8mph
Humidity: 72%   Direction: 100°E
Pressure: 30.23"   Gusts: NA
Location:  37.08°N, 119.49°W
Report Text: KFAT 191953Z 10007KT 10SM FEW080 SCT100 OVC150 13/08 A3023 RMK AO2 SLP235 T01280078
Loading
Personal Weather Stations






























Interactive Weather Map New forecast layout! Learn more

10-Day Weather Forecast

Advertisements
Track Severe Weather on mobile